Weather History for Troy, MI

Change the Weather History Date:

Sunday, October 16, 2011

  Actual Average (KDET) Record (KDET)
Temperature  
Mean Temperature 54 °F -  
Max Temperature 59 °F 59 °F 82 °F (1968)
Min Temperature 48 °F 44 °F 33 °F (1977)
Degree Days  
Heating Degree Days 12    
Growing Degree Days 4 (Base 50)    
Moisture  
Dew Point 38 °F    
Average Humidity 59    
Maximum Humidity 82    
Minimum Humidity 38    
Precipitation  
Precipitation 0.00 in - - ()
Sea Level Pressure  
Sea Level Pressure 29.76 in    
Wind  
Wind Speed 8 mph (SW)    
Max Wind Speed 20 mph    
Max Gust Speed 29 mph    
Visibility 10 miles    
Events Rain    
Averages and records for this station are not official NWS values.
T = Trace of Precipitation, MM = Missing Value Source: NWS Daily Summary

Daily Weather History Graph

Daily Weather History Graph

Search for Another Location

Airport:

Trip Planner

Search our weather history database for the weather conditions in past years. The results will help you decide how hot, cold, wet, or windy it might be!

Date:

Astronomy

Oct. 16, 2011 Rise Set
Actual Time 7:46 AM EDT 6:49 PM EDT
Civil Twilight 7:18 AM EDT 7:17 PM EDT
Nautical Twilight 6:45 AM EDT 7:50 PM EDT
Astronomical Twilight 6:12 AM EDT 8:22 PM EDT
Moon 9:28 PM EDT (10/16) 12:08 PM EDT (10/16)
Length of Visible Light 11h 59m
Length of Day
11h 02m
Waning Gibbous, 82% of the Moon is Illuminated
Oct 16
Waning Gibbous
Oct 19
Last Quarter
Oct 26
New
Nov 2
First Quarter
Nov 10
Full

Hourly Weather History & Observations

Time (EDT) Temp. Dew Point Humidity Pressure Visibility Wind Dir Wind Speed Gust Speed Precip Events Conditions
12:15 AM 50.0 °F 35.6 °F 58% 29.81 in 10.0 mi SW 6.9 mph - N/A   Clear
12:34 AM 48.2 °F 35.6 °F 62% 29.81 in 10.0 mi SW 8.1 mph - N/A   Clear
12:55 AM 48.2 °F 35.6 °F 62% 29.80 in 10.0 mi SW 6.9 mph - N/A   Clear
1:35 AM 48.2 °F 35.6 °F 62% 29.82 in 10.0 mi SSW 5.8 mph - N/A   Clear
1:55 AM 48.2 °F 35.6 °F 62% 29.82 in 10.0 mi SW 5.8 mph - N/A   Clear
2:14 AM 48.2 °F 35.6 °F 62% 29.83 in 10.0 mi SW 6.9 mph - N/A   Clear
2:35 AM 50.0 °F 35.6 °F 58% 29.83 in 10.0 mi SW 6.9 mph - N/A   Clear
2:55 AM 50.0 °F 35.6 °F 58% 29.83 in 10.0 mi SW 5.8 mph - N/A   Clear
3:14 AM 48.2 °F 35.6 °F 62% 29.82 in 10.0 mi SSW 4.6 mph - N/A   Clear
3:35 AM 48.2 °F 35.6 °F 62% 29.83 in 10.0 mi SW 5.8 mph - N/A   Clear
3:55 AM 48.2 °F 37.4 °F 66% 29.83 in 10.0 mi SSW 6.9 mph - N/A   Clear
4:14 AM 48.2 °F 37.4 °F 66% 29.82 in 10.0 mi SSW 9.2 mph - N/A   Scattered Clouds
4:55 AM 50.0 °F 37.4 °F 62% 29.84 in 10.0 mi SW 9.2 mph - N/A   Scattered Clouds
5:15 AM 50.0 °F 37.4 °F 62% 29.83 in 10.0 mi SW 6.9 mph - N/A   Overcast
5:35 AM 50.0 °F 37.4 °F 62% 29.83 in 10.0 mi SW 6.9 mph - N/A   Overcast
5:54 AM 50.0 °F 37.4 °F 62% 29.83 in 10.0 mi SW 6.9 mph - N/A   Overcast
6:15 AM 50.0 °F 37.4 °F 62% 29.82 in 10.0 mi SSW 5.8 mph - N/A   Overcast
6:35 AM 50.0 °F 37.4 °F 62% 29.83 in 10.0 mi SW 9.2 mph - N/A   Overcast
7:15 AM 51.8 °F 37.4 °F 58% 29.82 in 10.0 mi SW 6.9 mph - N/A   Overcast
7:34 AM 51.8 °F 37.4 °F 58% 29.82 in 10.0 mi SW 6.9 mph - N/A   Overcast
7:54 AM 51.8 °F 35.6 °F 54% 29.83 in 10.0 mi SW 9.2 mph - N/A   Mostly Cloudy
8:15 AM 51.8 °F 35.6 °F 54% 29.82 in 10.0 mi SSW 6.9 mph - N/A   Mostly Cloudy
8:34 AM 51.8 °F 35.6 °F 54% 29.82 in 10.0 mi SSW 6.9 mph - N/A Rain Rain
8:55 AM 50.0 °F 39.2 °F 66% 29.83 in 10.0 mi SW 5.8 mph - N/A Rain Rain
9:15 AM 48.2 °F 41.0 °F 76% 29.82 in 10.0 mi SW 4.6 mph - N/A   Overcast
9:34 AM 48.2 °F 42.8 °F 82% 29.82 in 10.0 mi SSW 6.9 mph - N/A   Overcast
9:55 AM 50.0 °F 41.0 °F 71% 29.82 in 10.0 mi SSW 8.1 mph - N/A   Overcast
10:15 AM 50.0 °F 41.0 °F 71% 29.82 in 10.0 mi SSW 8.1 mph - N/A   Overcast
10:34 AM 50.0 °F 41.0 °F 71% 29.81 in 10.0 mi SSW 5.8 mph - N/A   Overcast
10:55 AM 50.0 °F 41.0 °F 71% 29.80 in 10.0 mi SSW 6.9 mph - N/A   Overcast
11:15 AM 50.0 °F 41.0 °F 71% 29.80 in 10.0 mi SSW 5.8 mph - N/A   Overcast
11:35 AM 51.8 °F 41.0 °F 67% 29.77 in 10.0 mi SSW 4.6 mph - N/A   Overcast
12:14 PM 51.8 °F 41.0 °F 67% 29.75 in 10.0 mi SW 5.8 mph - N/A   Overcast
12:35 PM 51.8 °F 41.0 °F 67% 29.73 in 10.0 mi SW 4.6 mph - N/A   Mostly Cloudy
12:55 PM 53.6 °F 41.0 °F 62% 29.72 in 10.0 mi SSW 6.9 mph - N/A   Mostly Cloudy
1:35 PM 53.6 °F 41.0 °F 62% 29.71 in 10.0 mi SW 8.1 mph - N/A   Scattered Clouds
1:54 PM 53.6 °F 41.0 °F 62% 29.68 in 10.0 mi SW 5.8 mph - N/A   Scattered Clouds
2:14 PM 55.4 °F 42.8 °F 63% 29.68 in 10.0 mi WSW 9.2 mph 16.1 mph N/A   Clear
2:35 PM 55.4 °F 42.8 °F 63% 29.68 in 10.0 mi SW 11.5 mph - N/A   Clear
2:55 PM 57.2 °F 42.8 °F 59% 29.66 in 10.0 mi SW 9.2 mph - N/A   Clear
3:15 PM 59.0 °F 42.8 °F 55% 29.66 in 10.0 mi SW 8.1 mph - N/A   Scattered Clouds
3:35 PM 57.2 °F 42.8 °F 59% 29.66 in 10.0 mi SW 9.2 mph - N/A   Scattered Clouds
3:54 PM 59.0 °F 42.8 °F 55% 29.64 in 10.0 mi SW 9.2 mph - N/A   Scattered Clouds
4:15 PM 59.0 °F 41.0 °F 51% 29.65 in 10.0 mi SW 12.7 mph 20.7 mph N/A   Mostly Cloudy
4:34 PM 59.0 °F 41.0 °F 51% 29.65 in 10.0 mi WSW 8.1 mph - N/A   Scattered Clouds
4:55 PM 59.0 °F 41.0 °F 51% 29.65 in 10.0 mi WSW 12.7 mph 17.3 mph N/A   Mostly Cloudy
5:14 PM 59.0 °F 41.0 °F 51% 29.66 in 10.0 mi WSW 12.7 mph 17.3 mph N/A   Overcast
5:35 PM 59.0 °F 41.0 °F 51% 29.66 in 10.0 mi West 11.5 mph 16.1 mph N/A   Overcast
5:55 PM 59.0 °F 39.2 °F 48% 29.67 in 10.0 mi West 19.6 mph 28.8 mph N/A   Scattered Clouds
6:14 PM 59.0 °F 35.6 °F 42% 29.68 in 10.0 mi West 15.0 mph 19.6 mph N/A   Scattered Clouds
6:35 PM 57.2 °F 32.0 °F 38% 29.69 in 10.0 mi West 10.4 mph 21.9 mph N/A   Scattered Clouds
6:55 PM 55.4 °F 33.8 °F 44% 29.70 in 10.0 mi West 8.1 mph - N/A   Scattered Clouds
7:14 PM 55.4 °F 32.0 °F 41% 29.70 in 10.0 mi West 11.5 mph 23.0 mph N/A   Clear
7:35 PM 53.6 °F 32.0 °F 44% 29.71 in 10.0 mi WSW 11.5 mph - N/A   Clear
7:54 PM 53.6 °F 32.0 °F 44% 29.72 in 10.0 mi West 8.1 mph - N/A   Clear
8:15 PM 53.6 °F 32.0 °F 44% 29.73 in 10.0 mi WSW 10.4 mph - N/A   Clear
8:34 PM 51.8 °F 32.0 °F 47% 29.73 in 10.0 mi WSW 8.1 mph - N/A   Clear
8:55 PM 51.8 °F 32.0 °F 47% 29.73 in 10.0 mi WSW 6.9 mph - N/A   Clear
9:15 PM 51.8 °F 32.0 °F 47% 29.73 in 10.0 mi SW 6.9 mph - N/A   Clear
9:34 PM 50.0 °F 32.0 °F 50% 29.73 in 10.0 mi SW 5.8 mph - N/A   Clear
9:55 PM 50.0 °F 32.0 °F 50% 29.74 in 10.0 mi SW 6.9 mph - N/A   Scattered Clouds
10:15 PM 50.0 °F 33.8 °F 54% 29.74 in 10.0 mi SSW 6.9 mph - N/A   Mostly Cloudy
10:34 PM 50.0 °F 33.8 °F 54% 29.75 in 10.0 mi SSW 8.1 mph - N/A   Mostly Cloudy
10:55 PM 50.0 °F 33.8 °F 54% 29.75 in 10.0 mi SW 8.1 mph - N/A   Mostly Cloudy
11:14 PM 50.0 °F 33.8 °F 54% 29.75 in 10.0 mi SW 9.2 mph - N/A   Mostly Cloudy
11:35 PM 50.0 °F 35.6 °F 58% 29.74 in 10.0 mi SW 8.1 mph - N/A   Scattered Clouds
11:55 PM 50.0 °F 35.6 °F 58% 29.74 in 10.0 mi SW 9.2 mph - N/A   Scattered Clouds